Date,TemperatureHighF,TemperatureAvgF,TemperatureLowF,DewpointHighF,DewpointAvgF,DewpointLowF,HumidityHigh,HumidityAvg,HumidityLow,PressureMaxIn,PressureMinIn,WindSpeedMaxMPH,WindSpeedAvgMPH,GustSpeedMaxMPH,PrecipitationSumIn
2013-2-1,21,15,12,9,5,-8,79,64,31,0.00,40.00,16,8,24,0.00
2013-2-2,25,22,18,-10,-16,-22,27,17,12,0.00,40.00,20,10,26,0.00
2013-2-3,25,22,16,18,-6,-31,96,44,7,0.00,40.00,16,10,31,0.00
2013-2-7,25,20,14,6,-16,-100,66,31,8,0.00,40.00,36,13,55,0.00
2013-2-8,18,16,14,15,9,2,94,75,56,0.00,40.00,48,38,85,0.00
2013-2-9,14,8,2,8,5,0,92,88,71,0.00,40.00,47,19,71,0.00
2013-2-10,9,2,-1,5,0,-4,89,88,86,0.00,40.00,14,8,29,0.00
2013-2-11,8,2,-2,5,-1,-5,89,88,85,0.00,40.00,26,14,39,0.00
2013-2-12,8,2,-4,0,-4,-8,87,77,51,0.00,40.00,22,14,27,0.00
2013-2-13,14,10,6,8,4,-3,92,76,58,0.00,40.00,24,17,34,0.00
2013-2-14,15,10,5,11,2,-12,91,75,29,0.00,40.00,20,12,28,0.00
2013-2-15,12,6,4,4,2,-7,92,81,42,0.00,40.00,28,18,38,0.00
2013-2-16,23,17,12,1,-4,-13,50,39,20,0.00,40.00,24,13,36,0.00
2013-2-17,23,19,10,9,-14,-27,92,26,10,0.00,40.00,29,18,49,0.00
2013-2-18,14,8,-2,11,-5,-34,92,68,9,0.00,40.00,27,13,37,0.00
2013-2-19,18,15,11,3,-14,-37,59,31,7,0.00,40.00,38,26,52,0.00
2013-2-20,16,11,8,11,7,5,92,84,67,0.00,40.00,39,14,59,0.00
2013-2-21,13,8,4,11,6,2,93,92,90,0.00,40.00,26,14,35,0.00
2013-2-22,9,4,-2,8,2,-4,93,90,88,0.00,40.00,21,10,32,0.00
2013-2-23,18,9,-2,13,6,-4,93,90,82,0.00,40.00,23,12,42,0.00
2013-2-24,5,-1,-8,2,-4,-11,89,87,84,0.00,40.00,23,12,30,0.00
2013-2-25,21,7,-1,14,1,-9,90,77,36,0.00,40.00,19,10,29,0.00
2013-2-26,14,3,0,2,-2,-3,90,83,46,0.00,40.00,33,20,43,0.00
2013-2-27,15,2,-3,12,0,-6,90,88,87,0.00,40.00,12,3,19,0.00
2013-2-28,11,5,-1,5,-2,-8,88,76,46,0.00,40.00,21,6,31,0.00